Time;durP1;ratioP1;P1;durP2;ratioP2;P2;SDS_P1;SDS_P2;PMS_P1;PMS_P2;Temp;Humidity;BMP_temperature;BMP_pressure;BME280_temperature;BME280_humidity;BME280_pressure;Samples;Min_cycle;Max_cycle;Signal;HPM_P1;HPM_P2
2021/11/15 00:01:12;;;;;;;40.63;9.70;;;;;;;5.71;100.00;-19316.22;5019490;28;20473;-71
2021/11/15 00:03:38;;;;;;;34.30;8.70;;;;;;;5.76;100.00;-19317.53;5020052;28;20036;-72
2021/11/15 00:06:03;;;;;;;30.50;8.20;;;;;;;5.76;100.00;-19317.41;5020012;28;20057;-72
2021/11/15 00:08:29;;;;;;;31.10;9.07;;;;;;;5.72;100.00;-19316.47;5020407;28;20033;-72
2021/11/15 00:10:54;;;;;;;34.80;8.67;;;;;;;5.67;100.00;-19315.16;5032346;28;20044;-71
2021/11/15 00:13:20;;;;;;;30.87;7.37;;;;;;;5.67;100.00;-19315.16;5025284;28;20424;-71
2021/11/15 00:15:45;;;;;;;27.23;8.30;;;;;;;5.68;100.00;-19315.41;5024477;28;20037;-72
2021/11/15 00:18:10;;;;;;;33.80;9.73;;;;;;;5.69;100.00;-19315.69;5024349;28;20029;-72
2021/11/15 00:20:37;;;;;;;34.60;8.67;;;;;;;5.70;100.00;-19315.94;5023932;28;20029;-72
2021/11/15 00:23:03;;;;;;;46.20;10.17;;;;;;;5.64;100.00;-19314.34;5023884;28;20044;-72
2021/11/15 00:25:28;;;;;;;47.43;10.57;;;;;;;5.64;100.00;-19314.34;5023599;28;20025;-72
2021/11/15 00:27:55;;;;;;;42.67;10.90;;;;;;;5.59;100.00;-19313.16;5024039;28;20045;-72
2021/11/15 00:30:20;;;;;;;45.63;9.43;;;;;;;5.58;100.00;-19312.91;5023249;28;20053;-72
2021/11/15 00:32:46;;;;;;;35.83;8.50;;;;;;;5.53;100.00;-19311.59;5024095;28;20033;-71
2021/11/15 00:35:12;;;;;;;35.67;7.40;;;;;;;5.55;100.00;-19311.97;5021547;28;20038;-71
2021/11/15 00:37:38;;;;;;;31.63;9.10;;;;;;;5.53;100.00;-19311.44;5022331;28;20520;-72
2021/11/15 00:40:07;;;;;;;33.37;9.03;;;;;;;5.54;100.00;-19311.84;5023067;28;20112;-72
2021/11/15 00:42:32;;;;;;;38.03;9.27;;;;;;;5.56;100.00;-19312.25;5022727;28;20052;-72
2021/11/15 00:44:58;;;;;;;34.30;8.87;;;;;;;5.56;100.00;-19312.38;5027549;28;20021;-72
2021/11/15 00:47:23;;;;;;;32.80;9.37;;;;;;;5.58;100.00;-19312.78;5024315;28;20033;-72
2021/11/15 00:49:49;;;;;;;37.83;10.57;;;;;;;5.61;100.00;-19313.56;5023697;28;20124;-72
2021/11/15 00:52:14;;;;;;;36.17;9.40;;;;;;;5.61;100.00;-19313.56;5023292;28;20044;-72
2021/11/15 00:54:40;;;;;;;33.87;9.03;;;;;;;5.63;100.00;-19313.97;5023287;28;20030;-72
2021/11/15 00:57:05;;;;;;;34.60;8.33;;;;;;;5.66;100.00;-19314.75;5023095;28;20033;-72
2021/11/15 00:59:32;;;;;;;29.20;8.43;;;;;;;5.58;100.00;-19312.91;5023426;28;20104;-71
2021/11/15 01:01:58;;;;;;;35.63;8.67;;;;;;;5.59;100.00;-19313.03;5021876;28;20545;-73
2021/11/15 01:04:25;;;;;;;32.30;8.67;;;;;;;5.64;100.00;-19314.34;5022866;28;20109;-72
2021/11/15 01:06:52;;;;;;;31.23;9.13;;;;;;;5.60;100.00;-19313.31;5023238;28;20033;-72
2021/11/15 01:09:18;;;;;;;29.27;7.63;;;;;;;5.57;100.00;-19312.63;5022825;28;20029;-72
2021/11/15 01:11:44;;;;;;;42.30;9.87;;;;;;;5.56;100.00;-19312.25;5022832;28;20082;-72
2021/11/15 01:14:10;;;;;;;36.80;10.73;;;;;;;5.55;100.00;-19311.97;5023246;28;20442;-72
2021/11/15 01:16:36;;;;;;;36.83;8.87;;;;;;;5.51;100.00;-19310.91;5023463;28;20029;-72
2021/11/15 01:19:01;;;;;;;41.70;9.73;;;;;;;5.50;100.00;-19310.66;5023312;28;20037;-72
2021/11/15 01:21:28;;;;;;;25.97;8.80;;;;;;;5.58;100.00;-19312.91;5023098;28;20029;-73
2021/11/15 01:23:55;;;;;;;36.67;9.40;;;;;;;5.55;100.00;-19311.97;5022785;28;20033;-73
2021/11/15 01:26:20;;;;;;;29.57;7.63;;;;;;;5.55;100.00;-19311.97;5022349;28;20025;-73
2021/11/15 01:28:47;;;;;;;35.57;8.80;;;;;;;5.53;100.00;-19311.44;5022418;28;20452;-72
2021/11/15 01:31:13;;;;;;;32.83;8.53;;;;;;;5.54;100.00;-19311.84;5023173;28;20037;-72
2021/11/15 01:33:38;;;;;;;36.20;8.67;;;;;;;5.51;100.00;-19310.91;5022417;28;20036;-72
2021/11/15 01:36:04;;;;;;;28.93;7.33;;;;;;;5.51;100.00;-19310.91;5021919;28;20432;-72
2021/11/15 01:38:30;;;;;;;28.73;8.03;;;;;;;5.47;100.00;-19310.00;5022785;28;20030;-72
2021/11/15 01:40:55;;;;;;;42.50;9.73;;;;;;;5.49;100.00;-19310.53;5021028;28;20071;-72
2021/11/15 01:43:21;;;;;;;36.30;10.30;;;;;;;5.44;100.00;-19309.19;5022264;28;20030;-72
2021/11/15 01:45:46;;;;;;;33.47;8.57;;;;;;;5.45;100.00;-19309.31;5027562;28;20524;-72
2021/11/15 01:48:13;;;;;;;23.50;6.87;;;;;;;5.47;100.00;-19309.88;5021705;28;20040;-72
2021/11/15 01:50:39;;;;;;;31.17;8.03;;;;;;;5.42;100.00;-19308.53;5022635;28;20040;-72
2021/11/15 01:53:09;;;;;;;32.67;8.30;;;;;;;5.46;100.00;-19309.59;5022714;28;20634;-72
2021/11/15 01:55:36;;;;;;;36.93;8.30;;;;;;;5.46;100.00;-19309.59;5022590;28;20044;-72
2021/11/15 01:58:03;;;;;;;28.87;7.57;;;;;;;5.46;100.00;-19309.59;5022648;28;20028;-72
2021/11/15 02:00:43;;;;;;;25.87;8.43;;;;;;;5.44;100.00;-19309.06;5020798;28;20025;-73
2021/11/15 02:03:09;;;;;;;25.80;7.07;;;;;;;5.45;100.00;-19309.31;5017969;28;20025;-73
2021/11/15 02:05:35;;;;;;;30.50;8.93;;;;;;;5.47;100.00;-19309.88;5021648;28;20490;-72
2021/11/15 02:08:01;;;;;;;29.93;7.33;;;;;;;5.43;100.00;-19308.94;5021716;28;20030;-72
2021/11/15 02:10:27;;;;;;;31.23;7.80;;;;;;;5.43;100.00;-19308.81;5020131;28;20029;-73
2021/11/15 02:12:53;;;;;;;30.00;6.23;;;;;;;5.47;100.00;-19309.88;5021207;28;20033;-73
2021/11/15 02:15:19;;;;;;;30.93;8.23;;;;;;;5.44;100.00;-19309.06;5022222;28;20025;-72
2021/11/15 02:17:47;;;;;;;30.90;7.80;;;;;;;5.41;100.00;-19308.41;5018463;28;20033;-73
2021/11/15 02:20:25;;;;;;;35.17;8.23;;;;;;;5.43;100.00;-19308.81;5021485;28;20030;-72
2021/11/15 02:22:52;;;;;;;38.57;8.97;;;;;;;5.45;100.00;-19309.31;5011278;28;20485;-73
2021/11/15 02:25:22;;;;;;;32.87;8.47;;;;;;;5.44;100.00;-19309.06;5021130;28;20029;-73
2021/11/15 02:27:49;;;;;;;40.33;9.67;;;;;;;5.43;100.00;-19308.81;5021563;28;20091;-73
2021/11/15 02:30:21;;;;;;;34.53;9.23;;;;;;;5.36;100.00;-19307.09;5020724;28;20125;-73
2021/11/15 02:32:47;;;;;;;30.33;8.32;;;;;;;5.40;100.00;-19308.00;5019795;28;20029;-73
2021/11/15 02:35:13;;;;;;;32.37;8.00;;;;;;;5.37;100.00;-19307.22;5018902;28;20639;-73
2021/11/15 02:37:40;;;;;;;30.20;8.13;;;;;;;5.34;100.00;-19306.41;5020994;28;20079;-73
2021/11/15 02:40:08;;;;;;;31.03;8.33;;;;;;;5.34;100.00;-19306.56;5021082;28;20120;-73
2021/11/15 02:42:34;;;;;;;32.27;7.57;;;;;;;5.37;100.00;-19307.22;5021513;28;20109;-73
2021/11/15 02:45:00;;;;;;;35.00;8.50;;;;;;;5.36;100.00;-19306.94;5020897;28;20064;-73
2021/11/15 02:47:26;;;;;;;27.93;6.87;;;;;;;5.33;100.00;-19306.16;5021163;28;20047;-73
2021/11/15 02:49:52;;;;;;;27.93;6.53;;;;;;;5.34;100.00;-19306.41;5021408;28;20108;-72
2021/11/15 02:52:17;;;;;;;26.50;7.63;;;;;;;5.30;100.00;-19305.63;5015223;28;20827;-72
2021/11/15 02:54:44;;;;;;;27.50;6.33;;;;;;;5.28;100.00;-19305.09;5020506;28;20019;-73
2021/11/15 02:57:17;;;;;;;24.57;6.47;;;;;;;5.28;100.00;-19305.09;5019375;28;20029;-73
2021/11/15 02:59:43;;;;;;;28.20;7.83;;;;;;;5.25;100.00;-19304.31;5021168;28;20051;-73
2021/11/15 03:02:09;;;;;;;30.33;7.70;;;;;;;5.18;100.00;-19302.31;5020914;28;20021;-73
2021/11/15 03:04:35;;;;;;;22.93;7.30;;;;;;;5.25;100.00;-19304.31;5020628;28;20083;-73
2021/11/15 03:07:00;;;;;;;25.47;7.10;;;;;;;5.25;100.00;-19304.16;5021115;28;20087;-73
2021/11/15 03:09:26;;;;;;;19.30;6.43;;;;;;;5.24;100.00;-19304.03;5021319;28;20024;-73
2021/11/15 03:11:52;;;;;;;24.70;6.27;;;;;;;5.24;100.00;-19304.03;5020945;28;20394;-74
2021/11/15 03:14:17;;;;;;;26.80;6.93;;;;;;;5.21;100.00;-19303.25;5021690;28;20118;-72
2021/11/15 03:16:43;;;;;;;24.73;6.23;;;;;;;5.26;100.00;-19304.56;5020901;28;20412;-73
2021/11/15 03:19:08;;;;;;;26.97;7.07;;;;;;;5.23;100.00;-19303.78;5021336;28;20490;-73
2021/11/15 03:21:34;;;;;;;24.70;7.47;;;;;;;5.23;100.00;-19303.78;5020796;28;20021;-73
2021/11/15 03:23:59;;;;;;;23.77;6.90;;;;;;;5.19;100.00;-19302.72;5021294;28;20022;-73
2021/11/15 03:26:26;;;;;;;26.20;7.17;;;;;;;5.27;100.00;-19304.84;5020220;28;20041;-73
2021/11/15 03:28:53;;;;;;;26.37;7.60;;;;;;;5.26;100.00;-19304.56;5021077;28;20017;-73
2021/11/15 03:31:22;;;;;;;29.23;7.50;;;;;;;5.24;100.00;-19303.91;5021006;28;20048;-73
2021/11/15 03:33:49;;;;;;;24.27;5.73;;;;;;;5.20;100.00;-19302.84;5020310;28;20033;-73
2021/11/15 03:36:15;;;;;;;19.97;4.90;;;;;;;5.24;100.00;-19304.03;5020011;28;20064;-73
2021/11/15 03:38:40;;;;;;;20.13;5.90;;;;;;;5.19;100.00;-19302.72;5020727;28;20026;-73
2021/11/15 03:41:07;;;;;;;24.83;5.63;;;;;;;5.22;100.00;-19303.50;5020842;28;20076;-73
2021/11/15 03:43:33;;;;;;;24.00;6.90;;;;;;;5.22;100.00;-19303.38;5020663;28;20607;-73
2021/11/15 03:45:58;;;;;;;22.50;7.20;;;;;;;5.24;100.00;-19304.03;5021201;28;20029;-73
2021/11/15 03:48:24;;;;;;;24.57;6.93;;;;;;;5.21;100.00;-19303.25;5024808;28;20025;-72
2021/11/15 03:50:55;;;;;;;22.40;6.30;;;;;;;5.27;100.00;-19304.69;5027869;28;20497;-73
2021/11/15 03:53:23;;;;;;;23.03;6.77;;;;;;;5.28;100.00;-19305.09;5023036;28;20032;-73
2021/11/15 03:55:49;;;;;;;24.87;6.83;;;;;;;5.24;100.00;-19303.91;5024066;28;20523;-72
2021/11/15 03:58:15;;;;;;;24.57;6.03;;;;;;;5.21;100.00;-19303.13;5024176;28;20091;-72
2021/11/15 04:00:41;;;;;;;24.07;6.50;;;;;;;5.25;100.00;-19304.31;5024503;28;20029;-73
2021/11/15 04:03:15;;;;;;;25.60;7.27;;;;;;;5.28;100.00;-19304.97;5024351;28;20041;-72
2021/11/15 04:05:45;;;;;;;30.07;7.47;;;;;;;5.26;100.00;-19304.56;5024203;28;20036;-72
2021/11/15 04:08:11;;;;;;;17.80;5.27;;;;;;;5.31;100.00;-19305.75;5024358;28;20044;-72
2021/11/15 04:10:40;;;;;;;28.87;7.73;;;;;;;5.25;100.00;-19304.31;5024350;28;20040;-72
2021/11/15 04:13:13;;;;;;;24.07;6.67;;;;;;;5.22;100.00;-19303.50;5024181;28;20155;-72
2021/11/15 04:15:39;;;;;;;22.02;7.45;;;;;;;5.17;100.00;-19302.19;5023563;28;20378;-73
2021/11/15 04:18:08;;;;;;;27.73;7.10;;;;;;;5.25;100.00;-19304.31;5023994;28;20039;-72
2021/11/15 04:20:33;;;;;;;25.77;6.83;;;;;;;5.25;100.00;-19304.31;5024415;28;20038;-72
2021/11/15 04:23:00;;;;;;;16.93;6.33;;;;;;;5.26;100.00;-19304.56;5024211;28;20402;-72
2021/11/15 04:25:26;;;;;;;22.60;5.57;;;;;;;5.24;100.00;-19303.91;5018838;28;20157;-72
2021/11/15 04:27:52;;;;;;;21.17;5.77;;;;;;;5.24;100.00;-19303.91;5021140;28;20785;-72
2021/11/15 04:30:17;;;;;;;24.30;6.20;;;;;;;5.25;100.00;-19304.16;5024455;28;20124;-73
2021/11/15 04:32:44;;;;;;;26.57;6.53;;;;;;;5.29;100.00;-19305.34;5022034;28;20025;-72
2021/11/15 04:35:11;;;;;;;25.43;6.67;;;;;;;5.27;100.00;-19304.84;5023069;28;20013;-72
2021/11/15 04:37:38;;;;;;;25.10;7.00;;;;;;;5.24;100.00;-19303.91;5023185;28;20021;-72
2021/11/15 04:40:05;;;;;;;36.10;9.07;;;;;;;5.19;100.00;-19302.72;5023380;28;20028;-72
2021/11/15 04:42:31;;;;;;;30.80;8.17;;;;;;;5.17;100.00;-19302.19;5022916;28;20030;-72
2021/11/15 04:44:56;;;;;;;38.23;9.77;;;;;;;5.17;100.00;-19302.06;5023214;28;20033;-72
2021/11/15 04:47:22;;;;;;;36.47;10.00;;;;;;;5.16;100.00;-19301.91;5023416;28;20861;-72
2021/11/15 04:49:47;;;;;;;44.40;10.07;;;;;;;5.16;100.00;-19301.91;5022868;28;20075;-72
2021/11/15 04:52:13;;;;;;;41.07;9.90;;;;;;;5.09;100.00;-19300.06;5023308;28;20034;-73
2021/11/15 04:54:38;;;;;;;46.43;11.47;;;;;;;5.16;100.00;-19301.91;5022579;28;20078;-72
2021/11/15 04:57:04;;;;;;;48.53;10.60;;;;;;;5.08;100.00;-19299.81;5022977;28;20101;-73
2021/11/15 04:59:29;;;;;;;32.57;9.00;;;;;;;5.11;100.00;-19300.59;5023022;28;20030;-72
2021/11/15 05:01:55;;;;;;;39.70;10.00;;;;;;;5.12;100.00;-19300.88;5028242;28;20059;-73
2021/11/15 05:04:20;;;;;;;54.43;14.23;;;;;;;5.10;100.00;-19300.34;5023093;28;20116;-73
2021/11/15 05:06:46;;;;;;;55.33;13.17;;;;;;;5.14;100.00;-19301.25;5022882;28;20049;-73
2021/11/15 05:09:11;;;;;;;52.77;12.80;;;;;;;5.20;100.00;-19302.97;5022804;28;20029;-72
2021/11/15 05:11:36;;;;;;;61.77;13.90;;;;;;;5.13;100.00;-19301.00;5022884;28;20041;-72
2021/11/15 05:14:02;;;;;;;43.50;12.23;;;;;;;5.18;100.00;-19302.31;5022122;28;20501;-72
2021/11/15 05:16:27;;;;;;;59.70;14.57;;;;;;;5.15;100.00;-19301.66;5022053;28;20064;-72
2021/11/15 05:18:53;;;;;;;52.43;12.83;;;;;;;5.19;100.00;-19302.72;5022153;28;20049;-72
2021/11/15 05:21:19;;;;;;;60.83;15.03;;;;;;;5.18;100.00;-19302.44;5022567;28;20036;-72
2021/11/15 05:23:45;;;;;;;59.53;14.20;;;;;;;5.19;100.00;-19302.72;5022279;28;20112;-72
2021/11/15 05:26:11;;;;;;;60.23;13.43;;;;;;;5.24;100.00;-19304.03;5022727;28;20112;-72
2021/11/15 05:28:37;;;;;;;53.53;11.57;;;;;;;5.24;100.00;-19304.03;5022900;28;20370;-72
2021/11/15 05:31:03;;;;;;;46.63;12.50;;;;;;;5.27;100.00;-19304.84;5022622;28;20126;-72
2021/11/15 05:33:28;;;;;;;56.93;12.57;;;;;;;5.27;100.00;-19304.84;5022418;28;20041;-72
2021/11/15 05:35:54;;;;;;;62.50;16.97;;;;;;;5.28;100.00;-19305.09;5021348;28;20462;-72
2021/11/15 05:38:19;;;;;;;51.60;12.13;;;;;;;5.28;100.00;-19305.09;5021088;28;20021;-72
2021/11/15 05:40:44;;;;;;;50.90;14.73;;;;;;;5.27;100.00;-19304.84;5021851;28;20051;-72
2021/11/15 05:43:10;;;;;;;48.33;14.20;;;;;;;5.33;100.00;-19306.16;5019476;28;20032;-72
2021/11/15 05:45:35;;;;;;;56.97;15.57;;;;;;;5.34;100.00;-19306.41;5019109;28;20022;-73
2021/11/15 05:48:01;;;;;;;59.70;16.43;;;;;;;5.29;100.00;-19305.34;5021720;28;20033;-74
2021/11/15 05:50:28;;;;;;;56.77;15.20;;;;;;;5.28;100.00;-19305.09;5020621;28;20037;-73
2021/11/15 05:52:55;;;;;;;58.43;14.03;;;;;;;5.25;100.00;-19304.31;5021502;28;20193;-74
2021/11/15 05:55:23;;;;;;;64.00;16.33;;;;;;;5.25;100.00;-19304.31;5022248;28;20037;-74
2021/11/15 05:57:49;;;;;;;60.37;14.87;;;;;;;5.28;100.00;-19304.97;5021882;28;20025;-74
2021/11/15 06:00:19;;;;;;;65.07;16.27;;;;;;;5.23;100.00;-19303.63;5021857;28;20552;-74
2021/11/15 06:02:45;;;;;;;61.03;15.73;;;;;;;5.25;100.00;-19304.16;5019619;28;20025;-74
2021/11/15 06:05:11;;;;;;;64.47;14.40;;;;;;;5.27;100.00;-19304.84;5022231;28;20021;-73
2021/11/15 06:07:36;;;;;;;52.67;12.60;;;;;;;5.25;100.00;-19304.31;5022197;28;20566;-73
2021/11/15 06:10:06;;;;;;;44.03;13.03;;;;;;;5.28;100.00;-19305.09;5020827;28;20029;-73
2021/11/15 06:12:31;;;;;;;52.37;15.33;;;;;;;5.32;100.00;-19306.03;5020629;28;20036;-73
2021/11/15 06:14:57;;;;;;;50.93;14.00;;;;;;;5.28;100.00;-19305.09;5020821;28;20442;-74
2021/11/15 06:17:22;;;;;;;59.83;16.90;;;;;;;5.28;100.00;-19305.09;5019091;28;20053;-74
2021/11/15 06:19:47;;;;;;;56.60;15.13;;;;;;;5.23;100.00;-19303.63;5021973;28;20112;-74
2021/11/15 06:22:13;;;;;;;61.17;14.80;;;;;;;5.28;100.00;-19304.97;5021694;28;20421;-74
2021/11/15 06:24:41;;;;;;;64.17;17.43;;;;;;;5.25;100.00;-19304.16;5021245;28;20045;-74
2021/11/15 06:27:07;;;;;;;56.23;15.13;;;;;;;5.26;100.00;-19304.44;5022035;28;20531;-75
2021/11/15 06:29:32;;;;;;;49.97;14.70;;;;;;;5.28;100.00;-19305.09;5020658;28;20049;-74
2021/11/15 06:31:58;;;;;;;50.57;11.90;;;;;;;5.31;100.00;-19305.75;5021912;28;20037;-74
2021/11/15 06:34:23;;;;;;;60.50;16.53;;;;;;;5.29;100.00;-19305.34;5021812;28;20022;-74
2021/11/15 06:36:49;;;;;;;48.97;13.33;;;;;;;5.36;100.00;-19306.94;5021786;28;20025;-74
2021/11/15 06:39:14;;;;;;;52.73;14.90;;;;;;;5.35;100.00;-19306.69;5015935;28;20038;-73
2021/11/15 06:41:40;;;;;;;58.17;16.03;;;;;;;5.34;100.00;-19306.41;5021171;28;20045;-73
2021/11/15 06:44:07;;;;;;;64.47;19.53;;;;;;;5.36;100.00;-19306.94;5021410;28;20576;-74
2021/11/15 06:46:32;;;;;;;57.57;15.80;;;;;;;5.35;100.00;-19306.69;5018563;28;20438;-73
2021/11/15 06:48:58;;;;;;;51.13;15.57;;;;;;;5.40;100.00;-19308.00;5021516;28;20072;-73
2021/11/15 06:51:24;;;;;;;55.10;16.13;;;;;;;5.33;100.00;-19306.16;5021600;28;20025;-74
2021/11/15 06:53:49;;;;;;;57.27;14.30;;;;;;;5.36;100.00;-19307.09;5021357;28;20017;-73
2021/11/15 06:56:15;;;;;;;58.90;16.87;;;;;;;5.38;100.00;-19307.59;5021256;28;20025;-73
2021/11/15 06:58:40;;;;;;;54.53;15.80;;;;;;;5.39;100.00;-19307.75;5021415;28;20652;-73
2021/11/15 07:01:06;;;;;;;58.33;15.90;;;;;;;5.43;100.00;-19308.81;5020850;28;20148;-74
2021/11/15 07:03:32;;;;;;;53.77;15.13;;;;;;;5.40;100.00;-19308.13;5021456;28;20525;-73
2021/11/15 07:05:58;;;;;;;52.30;14.77;;;;;;;5.41;100.00;-19308.28;5020870;28;20036;-73
2021/11/15 07:08:23;;;;;;;50.67;14.57;;;;;;;5.39;100.00;-19307.88;5021454;28;20025;-74
2021/11/15 07:10:49;;;;;;;50.60;14.50;;;;;;;5.40;100.00;-19308.13;5020939;28;20135;-74
2021/11/15 07:13:15;;;;;;;60.60;17.47;;;;;;;5.38;100.00;-19307.59;5021422;28;20104;-74
2021/11/15 07:15:42;;;;;;;54.57;15.53;;;;;;;5.36;100.00;-19307.09;5020917;28;20032;-74
2021/11/15 07:18:08;;;;;;;56.80;15.83;;;;;;;5.39;100.00;-19307.75;5021310;28;20044;-74
2021/11/15 07:20:33;;;;;;;57.47;14.67;;;;;;;5.37;100.00;-19307.22;5024510;28;20133;-74
2021/11/15 07:22:59;;;;;;;49.87;15.43;;;;;;;5.40;100.00;-19308.00;5025394;28;20135;-74
2021/11/15 07:25:25;;;;;;;55.93;16.30;;;;;;;5.40;100.00;-19308.00;5025151;28;20041;-74
2021/11/15 07:27:53;;;;;;;52.67;15.03;;;;;;;5.36;100.00;-19307.09;5025207;28;20401;-74
2021/11/15 07:30:20;;;;;;;52.10;15.97;;;;;;;5.39;100.00;-19307.75;5025008;28;20064;-74
2021/11/15 07:32:47;;;;;;;52.40;15.67;;;;;;;5.40;100.00;-19308.00;5024844;28;20030;-74
2021/11/15 07:35:12;;;;;;;53.03;16.20;;;;;;;5.39;100.00;-19307.88;5024927;28;20648;-73
2021/11/15 07:37:38;;;;;;;54.00;16.03;;;;;;;5.42;100.00;-19308.53;5024643;28;20025;-73
2021/11/15 07:40:08;;;;;;;53.27;16.17;;;;;;;5.42;100.00;-19308.53;5024704;28;20039;-74
2021/11/15 07:42:34;;;;;;;42.40;14.20;;;;;;;5.45;100.00;-19309.31;5024768;28;20389;-73
2021/11/15 07:45:00;;;;;;;50.00;16.63;;;;;;;5.44;100.00;-19309.19;5025026;28;20022;-74
2021/11/15 07:47:26;;;;;;;59.53;15.93;;;;;;;5.43;100.00;-19308.81;5024927;28;20474;-74
2021/11/15 07:49:52;;;;;;;50.10;14.97;;;;;;;5.42;100.00;-19308.53;5023505;28;20060;-73
2021/11/15 07:52:18;;;;;;;45.87;14.93;;;;;;;5.41;100.00;-19308.28;5024645;28;20021;-74
2021/11/15 07:54:45;;;;;;;47.73;15.30;;;;;;;5.41;100.00;-19308.28;5022104;28;20108;-74
2021/11/15 07:57:12;;;;;;;51.23;15.30;;;;;;;5.32;100.00;-19305.88;5024869;28;20036;-74
2021/11/15 07:59:37;;;;;;;40.37;12.53;;;;;;;5.34;100.00;-19306.41;5023148;28;20049;-74
2021/11/15 08:02:03;;;;;;;49.37;14.90;;;;;;;5.29;100.00;-19305.34;5033926;28;20045;-73
2021/11/15 08:04:29;;;;;;;46.80;13.97;;;;;;;5.34;100.00;-19306.41;5024655;28;20024;-74
2021/11/15 08:06:55;;;;;;;45.47;14.23;;;;;;;5.28;100.00;-19305.09;5024942;28;20544;-73
2021/11/15 08:09:21;;;;;;;43.47;14.43;;;;;;;5.23;100.00;-19303.78;5019815;28;20024;-72
2021/11/15 08:11:50;;;;;;;46.23;14.43;;;;;;;5.23;100.00;-19303.63;5024549;28;20040;-73
2021/11/15 08:14:16;;;;;;;37.77;12.03;;;;;;;5.24;100.00;-19304.03;5024669;28;20381;-73
2021/11/15 08:16:42;;;;;;;39.97;13.90;;;;;;;5.22;100.00;-19303.50;5024023;28;20037;-73
2021/11/15 08:19:08;;;;;;;36.33;12.70;;;;;;;5.24;100.00;-19304.03;5024710;28;20021;-73
2021/11/15 08:21:34;;;;;;;46.93;15.27;;;;;;;5.12;100.00;-19300.72;5024576;28;20037;-74
2021/11/15 08:24:25;;;;;;;44.90;12.93;;;;;;;5.20;100.00;-19302.84;5024313;28;20387;-74
2021/11/15 08:27:02;;;;;;;49.43;15.07;;;;;;;5.12;100.00;-19300.88;5024370;28;20030;-74
2021/11/15 08:29:31;;;;;;;53.33;15.60;;;;;;;5.14;100.00;-19301.38;5024128;28;20042;-73
2021/11/15 08:32:03;;;;;;;47.13;14.73;;;;;;;5.09;100.00;-19300.06;5023488;28;20033;-73
2021/11/15 08:34:29;;;;;;;45.85;14.02;;;;;;;5.21;100.00;-19303.13;5023967;28;20010;-73
2021/11/15 08:36:55;;;;;;;48.43;15.40;;;;;;;5.16;100.00;-19301.91;5024054;28;20528;-73
2021/11/15 08:39:23;;;;;;;50.73;15.40;;;;;;;5.13;100.00;-19301.00;5019809;28;20022;-73
2021/11/15 08:41:51;;;;;;;45.57;12.83;;;;;;;5.15;100.00;-19301.66;5022708;28;20037;-73
2021/11/15 08:44:18;;;;;;;43.53;14.07;;;;;;;5.11;100.00;-19300.59;5023888;28;20076;-74
2021/11/15 08:46:47;;;;;;;50.00;16.60;;;;;;;5.16;100.00;-19301.78;5023499;28;20041;-74
2021/11/15 08:49:15;;;;;;;56.93;15.87;;;;;;;5.15;100.00;-19301.66;5023628;28;20028;-74
2021/11/15 08:51:42;;;;;;;53.03;18.03;;;;;;;5.14;100.00;-19301.38;5023807;28;20657;-74
2021/11/15 08:54:14;;;;;;;48.33;15.00;;;;;;;5.18;100.00;-19302.44;5023630;28;20029;-73
2021/11/15 08:56:39;;;;;;;57.55;16.45;;;;;;;5.15;100.00;-19301.66;5023756;28;20033;-74
2021/11/15 08:59:05;;;;;;;50.23;16.30;;;;;;;5.15;100.00;-19301.66;5023431;28;20094;-74
2021/11/15 09:01:30;;;;;;;53.90;16.73;;;;;;;5.19;100.00;-19302.72;5021080;28;20505;-74
2021/11/15 09:03:56;;;;;;;56.67;17.10;;;;;;;5.17;100.00;-19302.19;5021683;28;20020;-74
2021/11/15 09:06:22;;;;;;;56.13;16.67;;;;;;;5.22;100.00;-19303.50;5023503;28;20095;-74
2021/11/15 09:08:50;;;;;;;52.77;16.97;;;;;;;5.15;100.00;-19301.53;5023288;28;20030;-74
2021/11/15 09:11:16;;;;;;;49.33;16.60;;;;;;;5.21;100.00;-19303.25;5023175;28;20036;-73
2021/11/15 09:13:45;;;;;;;48.83;15.70;;;;;;;5.19;100.00;-19302.72;5023441;28;20636;-74
2021/11/15 09:16:11;;;;;;;53.57;15.37;;;;;;;5.22;100.00;-19303.38;5023375;28;20116;-73
2021/11/15 09:18:38;;;;;;;52.23;17.13;;;;;;;5.21;100.00;-19303.25;5023102;28;20017;-74
2021/11/15 09:21:10;;;;;;;49.70;14.90;;;;;;;5.21;100.00;-19303.25;5023200;28;20108;-74
2021/11/15 09:23:39;;;;;;;44.13;14.85;;;;;;;5.21;100.00;-19303.25;5023064;28;20138;-73
2021/11/15 09:26:05;;;;;;;49.43;15.50;;;;;;;5.21;100.00;-19303.13;5022872;28;20061;-73
2021/11/15 09:28:31;;;;;;;47.33;15.57;;;;;;;5.19;100.00;-19302.72;5023177;28;20059;-72
2021/11/15 09:30:57;;;;;;;52.37;16.03;;;;;;;5.24;100.00;-19304.03;5021269;28;20557;-73
2021/11/15 09:33:23;;;;;;;46.07;14.47;;;;;;;5.22;100.00;-19303.38;5022954;28;20075;-73
2021/11/15 09:35:49;;;;;;;48.67;15.57;;;;;;;5.20;100.00;-19302.84;5022935;28;20474;-73
2021/11/15 09:38:16;;;;;;;59.70;16.27;;;;;;;5.28;100.00;-19304.97;5022956;28;20490;-73
2021/11/15 09:40:42;;;;;;;63.17;17.53;;;;;;;5.28;100.00;-19305.09;5022515;28;20141;-73
2021/11/15 09:43:08;;;;;;;58.80;17.03;;;;;;;5.27;100.00;-19304.69;5020431;28;20100;-74
2021/11/15 09:45:34;;;;;;;45.57;13.37;;;;;;;5.28;100.00;-19305.09;5020277;28;20109;-73
2021/11/15 09:48:00;;;;;;;43.80;13.83;;;;;;;5.26;100.00;-19304.56;5021920;28;20051;-73
2021/11/15 09:50:26;;;;;;;49.57;16.13;;;;;;;5.25;100.00;-19304.16;5022244;28;20029;-73
2021/11/15 09:52:52;;;;;;;48.40;13.13;;;;;;;5.24;100.00;-19304.03;5022536;28;20076;-73
2021/11/15 09:55:17;;;;;;;47.87;14.83;;;;;;;5.26;100.00;-19304.56;5022479;28;20021;-74
2021/11/15 09:57:45;;;;;;;52.17;15.23;;;;;;;5.27;100.00;-19304.69;5021929;28;20028;-73
2021/11/15 10:00:16;;;;;;;52.03;15.90;;;;;;;5.27;100.00;-19304.69;5022336;28;20096;-74
2021/11/15 10:02:42;;;;;;;47.53;14.20;;;;;;;5.27;100.00;-19304.84;5022343;28;20048;-74
2021/11/15 10:05:10;;;;;;;49.73;14.97;;;;;;;5.34;100.00;-19306.41;5021959;28;20474;-74
2021/11/15 10:07:43;;;;;;;52.33;15.23;;;;;;;5.36;100.00;-19306.94;5022567;28;20096;-73
2021/11/15 10:10:29;;;;;;;52.43;16.87;;;;;;;-145.18;100.00;60484.78;5022169;28;20036;-74
2021/11/15 10:13:20;;;;;;;46.57;15.17;;;;;;;5.31;100.00;-19305.75;5021159;28;20065;-74
2021/11/15 10:16:06;;;;;;;50.87;16.23;;;;;;;5.36;100.00;-19306.94;5021978;28;20045;-73
2021/11/15 10:18:55;;;;;;;55.73;15.10;;;;;;;5.34;100.00;-19306.41;5021827;28;20026;-73
2021/11/15 10:21:37;;;;;;;53.83;16.10;;;;;;;5.37;100.00;-19307.22;5021978;28;20409;-74
2021/11/15 10:24:13;;;;;;;57.55;17.55;;;;;;;5.39;100.00;-19307.88;5022041;28;20421;-74
2021/11/15 10:26:51;;;;;;;50.77;15.37;;;;;;;5.40;100.00;-19308.00;5022274;28;20116;-74
2021/11/15 10:29:22;;;;;;;51.33;14.97;;;;;;;5.43;100.00;-19308.94;5021942;28;20053;-73
2021/11/15 10:31:53;;;;;;;47.70;14.00;;;;;;;5.50;100.00;-19310.66;5017369;28;20036;-73
2021/11/15 10:34:24;;;;;;;50.43;17.73;;;;;;;5.44;100.00;-19309.06;5021240;28;20021;-73
2021/11/15 10:36:57;;;;;;;39.00;11.63;;;;;;;5.45;100.00;-19309.31;5021740;28;20045;-74
2021/11/15 10:39:38;;;;;;;46.87;14.43;;;;;;;5.40;100.00;-19308.13;5021707;28;20079;-72
2021/11/15 10:42:32;;;;;;;50.23;14.73;;;;;;;5.41;100.00;-19308.41;5021769;28;20037;-73
2021/11/15 10:45:20;;;;;;;38.37;12.77;;;;;;;5.47;100.00;-19309.88;4959737;28;20130;-73
2021/11/15 10:47:49;;;;;;;52.93;15.67;;;;;;;-145.18;100.00;60484.78;4959440;28;20380;-74
2021/11/15 10:50:45;;;;;;;48.87;14.93;;;;;;;-145.18;100.00;60484.78;4959643;28;20043;-74
2021/11/15 10:53:33;;;;;;;43.83;13.87;;;;;;;-145.18;100.00;60484.78;4959871;28;20126;-73
2021/11/15 10:56:10;;;;;;;50.53;14.23;;;;;;;-145.18;100.00;60484.78;4959156;28;20516;-74
2021/11/15 10:58:41;;;;;;;41.03;13.23;;;;;;;-145.18;100.00;60484.78;4959822;28;20495;-73
2021/11/15 11:01:07;;;;;;;49.13;15.17;;;;;;;-145.18;100.00;60484.78;4959439;28;20054;-74
2021/11/15 11:03:33;;;;;;;45.40;13.93;;;;;;;-145.18;100.00;60484.78;4959336;28;20190;-73
2021/11/15 11:06:12;;;;;;;43.60;13.43;;;;;;;-145.18;100.00;60484.78;4959148;28;20053;-73
2021/11/15 11:08:49;;;;;;;39.00;13.30;;;;;;;-145.18;100.00;60484.78;4959605;28;20056;-73
2021/11/15 11:11:26;;;;;;;41.97;13.30;;;;;;;-145.18;100.00;60484.78;4959321;28;20120;-74
2021/11/15 11:14:19;;;;;;;36.43;12.97;;;;;;;-145.18;100.00;60484.78;4959928;28;20871;-73